Airfield :
LOGIN :

Register | Disclaimer

   EN    FR    IT 

 










Legend :    VFR   Marginal VFR   IFR   Intensive IFR   Very Intensive IFR
Visi :
Ceiling :
>= 8 km
>= 3000ft
5 to 8 km
1000 to 3000 ft
1500m to 5 km
500 to 1000 ft
800 to 1500m
200 to 500 ft
< 800m
< 200 ft
Symbols :   Thunderstorms  Fog  Heavy snow  Heavy precipitations  Wind > 20 kt
SIGMETs :     Misc.  Thunderstorms  Icing  Turbulence  Mountain Waves  Volcanic Ashes







- Airport Elevation : 194 ft
- IATA code : IEG


EPZG - Zielona Gora Babimost

CURRENT METAR :
  • 160730Z 25013KT 220V280 9000 -RA BKN012 OVC016 07/06 Q1008

EXPIRED METARs :
  • 160700Z 25013KT 6000 -RA BKN010 OVC025 07/06 Q1008
  • 160630Z 24012KT 5000 -RA BR SCT009 BKN012 OVC018 07/06 Q1007
  • 160600Z 25014KT 7000 -RA SCT010 BKN021 OVC030 07/06 Q1007
  • 160530Z 25013KT 220V280 8000 -RA SCT010 BKN014 OVC025 07/06 Q1007
  • 160500Z 25015KT 220V280 5000 -RA BR BKN009 OVC026 07/06 Q1006

TAF TAF EPZG
Valid from the 16 at 06:00 until the 16 at 15:00 UTC


160530Z 1606/1615 25012KT 9999 OVC013
TEMPO 1606/1611 3000 DZ BR BKN006
BECMG 1610/1612 BKN018
No reported NOTAMs for that airfield.



MET'MAP, your aeronautical weather chart ! - Copyright ORBIFLY December 2007 - Disclaimer

ORBIFLY MET'MAP TEAM :

Programming & Development : Alexandra Zaïnal
Concept & Development : Baudouin d'Aumeries
Co-Development & Prog : Marc-Olivier Méhu
Technical & hardware support : Manuel Goepfert

Contact : metmap@orbifly.com




SOURCES & CREDITS :

   NOAA